ΕΜΥ, Εθνική Μετεωρολογική Υπηρεσία - Δελτία Καιρού, Προγνώσεις

ΑΕΡΟΝΑΥΤΙΛΙΑ

GREEK AIRPORTS CODES

LGEL 260450Z /////KT 9999 FEW020 BKN030 18/12 Q1017 RMK SCT080 32005KTPE=

EUROPEAN AIRPORTS CODES

LFPO 260430Z AUTO 02004KT CAVOK 14/09 Q1034 NOSIG=